Share

Union Center, SD (57787)

Ellsworth Air Force Base (KRCA) Elev 3278 ft | 44.15 °N, 103.10 °W | Change Station

Current weather conditions updated 46 minutes ago

Partly Cloudy
Partly Cloudy
53 °F
Feels Like 53 °F
N
21
Wind Variable Wind from SSE
Gusts 28 mph
Sunrise 6:03 AM
Sunset 7:38 PM
Moon Waning Gibbous

Tomorrow is forecast to be Much Warmer than today.

Pressure 30.06 in
Visibility 10.0 miles
Clouds Few 9000 ft
Dew Point 35 °F
Humidity 52%
Rainfall 0.00 in
Snow Depth Not available.
UV 4 out of 16
Pollen 7.90 out of 12
Air Quality Not available.
Flu Activity Sporadic
METAR KRCA 172158Z AUTO 15018G24KT 10SM FEW090 12/02 A3000 RMK AO2 SLP178 T01160019 $

More Conditions Fewer Conditions

Pressure 30.06 in
Visibility 10.0 miles
Clouds Few 9000 ft
Dew Point 35 °F
Humidity 52%
Rainfall 0.00 in
Snow Depth Not available.
UV 4 out of 16
Pollen 7.90 out of 12
Air Quality Not available.
Flu Activity Sporadic
METAR KRCA 172158Z AUTO 15018G24KT 10SM FEW090 12/02 A3000 RMK AO2 SLP178 T01160019 $

More Conditions Fewer Conditions

10-Day Forecast

Almanac

Astronomy

Apr. 17, 2014 Rise Set
Actual Time 6:03 AM MDT 7:38 PM MDT
Civil Twilight 5:32 AM MDT 8:08 PM MDT
Nautical Twilight 4:55 AM MDT 8:45 PM MDT
Astronomical Twilight 4:15 AM MDT 9:25 PM MDT
Moon 10:31 PM MDT 7:32 AM MDT
Length of Visible Light 14h 36m
Length of Day
13h 34m
Tomorrow will be 2m 56s longer.
Waning Gibbous, 92% of the Moon is Illuminated
Today
Waning Gibbous
Apr 22
Last Quarter
Apr 29
New
May 6
First Quarter
May 14
Full

Today's Extremes

State Highs State Lows

Community

  • Morning Light
    Morning Light
  • New Day
    New Day
  • Lake Michigan Sunrise
    Lake Michigan Sunrise
  • sunset from izmir, narlıdere
    sunset from izmir, narlıdere
  • oregon cherry
    oregon cherry

WunderPhotos

Upload Photos

1,702,156 photos uploaded!

WunderBlogs® & News

Nearby

Snow Depth

Station Depth Elevation
North Rapid Creek 22 in 6130 ft
Blind Park 24 in 6890 ft

Coastal Water Temperatures

Place Temperature
No Stations Reporting

Earthquake Activity

City Distance Mag. Time & Date
No recent earthquake activity has been reported nearby.
Minimum magnitude displayed is 2.5.

Nearby Weather Stations

Station Location Temp. Dew Point Humidity Wind Precip. Elev Updated Type
HADS BELLE FOURCHE RIVER NEAR ELM SPR SD, Enning, SD 54 °F - - North  at  - 0.00 in / hr 2171 ft 4:00 PM MDT MADIS

Show More Stations Show Fewer Stations

What do you think?

We're not finished. Please let us know what you like, what you don't like, and what you are still missing.